createdAt,value
2022-12-03T00:03:21.536Z,18.59
2022-12-03T00:09:46.121Z,18.52
2022-12-03T00:16:10.761Z,18.46
2022-12-03T00:22:35.157Z,18.40
2022-12-03T00:28:59.448Z,18.33
2022-12-03T00:35:23.871Z,18.28
2022-12-03T00:41:48.220Z,18.22
2022-12-03T00:48:12.619Z,18.16
2022-12-03T00:54:36.924Z,18.10
2022-12-03T01:01:01.387Z,18.04
2022-12-03T01:07:25.931Z,17.98
2022-12-03T01:13:50.587Z,17.92
2022-12-03T01:20:15.964Z,17.86
2022-12-03T01:26:33.382Z,17.80
2022-12-03T01:32:57.798Z,17.75
2022-12-03T01:39:22.225Z,17.69
2022-12-03T01:45:46.677Z,17.63
2022-12-03T01:52:11.047Z,17.58
2022-12-03T01:58:35.417Z,17.53
2022-12-03T02:04:59.685Z,17.47
2022-12-03T02:11:24.053Z,17.42
2022-12-03T02:17:48.447Z,17.37
2022-12-03T02:24:21.580Z,17.32
2022-12-03T02:30:46.175Z,17.27
2022-12-03T02:37:10.705Z,17.22
2022-12-03T02:43:35.111Z,17.17
2022-12-03T02:49:59.531Z,17.13
2022-12-03T02:56:23.932Z,17.08
2022-12-03T03:02:48.359Z,17.03
2022-12-03T03:09:12.649Z,16.99
2022-12-03T03:15:37.059Z,16.95
2022-12-03T03:22:01.472Z,16.91
2022-12-03T03:28:25.784Z,16.87
2022-12-03T03:34:50.187Z,16.83
2022-12-03T03:41:13.578Z,16.79
2022-12-03T03:47:28.194Z,16.76
2022-12-03T03:53:52.920Z,16.72
2022-12-03T04:00:17.240Z,16.68
2022-12-03T04:06:41.630Z,16.64
2022-12-03T04:13:17.992Z,16.61
2022-12-03T04:19:42.334Z,16.57
2022-12-03T04:26:05.117Z,16.53
2022-12-03T04:32:28.023Z,16.50
2022-12-03T04:38:52.377Z,16.45
2022-12-03T04:45:16.689Z,16.41
2022-12-03T04:51:41.022Z,16.38
2022-12-03T04:58:05.429Z,16.34
2022-12-03T05:04:29.707Z,16.31
2022-12-03T05:10:37.092Z,16.28
2022-12-03T05:16:44.589Z,16.25
2022-12-03T05:23:09.117Z,16.23
2022-12-03T05:29:33.492Z,16.27
2022-12-03T05:35:57.841Z,16.36
2022-12-03T05:42:21.266Z,16.49
2022-12-03T05:48:45.820Z,16.62
2022-12-03T05:55:10.137Z,16.75
2022-12-03T06:01:34.428Z,16.88
2022-12-03T06:07:58.912Z,16.99
2022-12-03T06:14:23.464Z,17.13
2022-12-03T06:20:48.070Z,17.24
2022-12-03T06:27:12.400Z,17.35
2022-12-03T06:33:36.758Z,17.47
2022-12-03T06:39:59.815Z,17.58
2022-12-03T06:46:24.237Z,17.67
2022-12-03T06:52:48.598Z,17.80
2022-12-03T06:59:13.011Z,17.89
2022-12-03T07:05:37.320Z,17.98
2022-12-03T07:12:01.667Z,18.08
2022-12-03T07:18:26.365Z,18.15
2022-12-03T07:24:50.851Z,18.27
2022-12-03T07:31:15.730Z,18.33
2022-12-03T07:37:40.206Z,18.40
2022-12-03T07:44:07.838Z,18.49
2022-12-03T07:50:36.923Z,18.59
2022-12-03T07:57:01.969Z,18.69
2022-12-03T08:03:26.577Z,18.74
2022-12-03T08:09:41.992Z,18.78
2022-12-03T08:16:15.341Z,18.82
2022-12-03T08:22:33.778Z,18.87
2022-12-03T08:28:58.181Z,18.85
2022-12-03T08:35:22.544Z,18.82
2022-12-03T08:41:54.265Z,18.80
2022-12-03T08:48:21.681Z,18.78
2022-12-03T08:54:48.803Z,18.80
2022-12-03T09:01:16.291Z,18.81
2022-12-03T09:07:40.876Z,18.83
2022-12-03T09:14:05.426Z,18.84
2022-12-03T09:20:29.727Z,18.89
2022-12-03T09:26:54.406Z,18.90
2022-12-03T09:33:18.780Z,18.91
2022-12-03T09:39:43.098Z,18.94
2022-12-03T09:46:07.818Z,19.00
2022-12-03T09:52:32.172Z,19.04
2022-12-03T09:58:56.589Z,19.08
2022-12-03T10:05:20.985Z,19.10
2022-12-03T10:11:45.307Z,19.12
2022-12-03T10:18:09.717Z,19.13
2022-12-03T10:24:32.295Z,19.16
2022-12-03T10:30:59.681Z,19.19
2022-12-03T10:37:24.185Z,19.23
2022-12-03T10:44:00.500Z,19.25
2022-12-03T10:50:25.063Z,19.27
2022-12-03T10:56:50.433Z,19.29
2022-12-03T11:03:20.710Z,19.31
2022-12-03T11:09:45.156Z,19.34
2022-12-03T11:16:24.519Z,19.36
2022-12-03T11:23:07.291Z,19.39
2022-12-03T11:29:34.751Z,19.49
2022-12-03T11:36:04.880Z,19.54
2022-12-03T11:42:29.348Z,19.52
2022-12-03T11:48:59.505Z,19.52
2022-12-03T11:55:23.905Z,19.48
2022-12-03T12:01:57.273Z,19.46
2022-12-03T12:08:29.181Z,19.52
2022-12-03T12:14:53.506Z,19.58
2022-12-03T12:21:23.820Z,19.58
2022-12-03T12:27:51.171Z,19.56
2022-12-03T12:34:07.740Z,19.55
2022-12-03T12:40:32.147Z,19.56
2022-12-03T12:46:48.987Z,19.62
2022-12-03T12:53:21.804Z,19.67
2022-12-03T12:59:52.123Z,19.72
2022-12-03T13:06:19.385Z,19.77
2022-12-03T13:12:43.768Z,19.80
2022-12-03T13:19:13.820Z,19.79
2022-12-03T13:32:31.356Z,19.82
2022-12-03T13:38:55.638Z,19.85
2022-12-03T13:45:20.030Z,19.85
2022-12-03T13:51:42.539Z,19.87
2022-12-03T13:58:07.017Z,19.92
2022-12-03T14:04:31.426Z,19.92
2022-12-03T14:11:00.435Z,19.90
2022-12-03T14:17:25.273Z,19.92
2022-12-03T14:23:49.627Z,19.94
2022-12-03T14:30:14.017Z,19.96
2022-12-03T14:36:38.295Z,20.01
2022-12-03T14:43:02.844Z,20.00
2022-12-03T14:49:27.148Z,20.04
2022-12-03T14:55:51.416Z,20.07
2022-12-03T15:02:15.857Z,20.09
2022-12-03T15:08:40.508Z,20.07
2022-12-03T15:15:05.001Z,20.04
2022-12-03T15:21:29.285Z,20.00
2022-12-03T15:26:53.732Z,19.99
2022-12-03T15:31:59.550Z,20.02
2022-12-03T15:37:02.885Z,20.03
2022-12-03T15:42:06.094Z,20.04
2022-12-03T15:47:09.336Z,20.04
2022-12-03T15:52:12.643Z,20.02
2022-12-03T15:57:16.113Z,20.02
2022-12-03T16:02:19.618Z,19.98
2022-12-03T16:07:22.969Z,19.97
2022-12-03T16:12:26.220Z,19.95
2022-12-03T16:17:29.624Z,19.97
2022-12-03T16:22:32.876Z,19.99
2022-12-03T16:27:38.163Z,20.03
2022-12-03T16:32:41.988Z,20.06
2022-12-03T16:37:45.253Z,20.10
2022-12-03T16:42:48.493Z,20.16
2022-12-03T16:47:51.787Z,20.18
2022-12-03T16:52:55.149Z,20.17
2022-12-03T16:57:58.465Z,20.17
2022-12-03T17:03:01.815Z,20.19
2022-12-03T17:08:05.213Z,20.19
2022-12-03T17:13:10.510Z,20.24
2022-12-03T17:18:14.208Z,20.27
2022-12-03T17:23:17.976Z,20.28
2022-12-03T17:28:21.297Z,20.29
2022-12-03T17:33:24.554Z,20.28
2022-12-03T17:38:28.035Z,20.34
2022-12-03T17:43:31.346Z,20.46
2022-12-03T17:48:35.413Z,20.58
2022-12-03T17:53:38.697Z,20.65
2022-12-03T17:58:42.040Z,20.73
2022-12-03T18:03:45.486Z,20.79
2022-12-03T18:08:48.823Z,20.85
2022-12-03T18:13:52.164Z,20.90
2022-12-03T18:18:57.653Z,20.93
2022-12-03T18:24:04.004Z,20.96
2022-12-03T18:29:07.332Z,20.97
2022-12-03T18:34:10.618Z,20.99
2022-12-03T18:39:30.325Z,21.02
2022-12-03T18:44:34.238Z,21.07
2022-12-03T18:49:37.590Z,21.11
2022-12-03T18:54:41.042Z,21.09
2022-12-03T18:59:44.431Z,21.07
2022-12-03T19:04:48.322Z,21.11
2022-12-03T19:09:51.969Z,21.16
2022-12-03T19:14:55.575Z,21.21
2022-12-03T19:19:58.962Z,21.23
2022-12-03T19:25:03.238Z,21.26
2022-12-03T19:30:07.522Z,21.29
2022-12-03T19:35:11.601Z,21.30
2022-12-03T19:40:15.788Z,21.34
2022-12-03T19:45:19.204Z,21.39
2022-12-03T19:50:23.705Z,21.43
2022-12-03T19:55:27.318Z,21.46
2022-12-03T20:00:30.681Z,21.45
2022-12-03T20:05:38.424Z,21.44
2022-12-03T20:10:41.897Z,21.46
2022-12-03T20:15:45.233Z,21.50
2022-12-03T20:20:48.564Z,21.52
2022-12-03T20:25:51.968Z,21.54
2022-12-03T20:31:05.089Z,21.55
2022-12-03T20:36:09.832Z,21.56
2022-12-03T20:41:15.890Z,21.59
2022-12-03T20:46:26.010Z,21.60
2022-12-03T20:51:31.115Z,21.61
2022-12-03T20:56:39.490Z,21.63
2022-12-03T21:01:44.316Z,21.64
2022-12-03T21:06:47.793Z,21.67
2022-12-03T21:11:51.251Z,21.66
2022-12-03T21:17:11.957Z,21.64
2022-12-03T21:22:15.445Z,21.48
2022-12-03T21:27:21.906Z,21.31
2022-12-03T21:32:25.568Z,21.14
2022-12-03T21:37:28.970Z,21.00
2022-12-03T21:42:35.629Z,20.87
2022-12-03T21:47:41.282Z,20.77
2022-12-03T21:52:44.762Z,20.67
2022-12-03T21:57:48.197Z,20.58
2022-12-03T22:02:52.668Z,20.50
2022-12-03T22:07:56.309Z,20.44
2022-12-03T22:13:00.363Z,20.36
2022-12-03T22:18:04.505Z,20.29
2022-12-03T22:23:07.935Z,20.22
2022-12-03T22:28:11.279Z,20.15
2022-12-03T22:33:14.611Z,20.09
2022-12-03T22:38:17.977Z,19.99
2022-12-03T22:43:22.277Z,19.92
2022-12-03T22:48:25.666Z,19.86
2022-12-03T22:53:29.070Z,19.79
2022-12-03T22:58:32.936Z,19.73
2022-12-03T23:03:37.511Z,19.69
2022-12-03T23:08:40.996Z,19.64
2022-12-03T23:13:44.860Z,19.58
2022-12-03T23:18:48.819Z,19.51
2022-12-03T23:23:52.282Z,19.43
2022-12-03T23:28:56.388Z,19.35
2022-12-03T23:34:00.449Z,19.29
2022-12-03T23:39:03.977Z,19.24
2022-12-03T23:44:07.354Z,19.17
2022-12-03T23:49:10.731Z,19.09
2022-12-03T23:54:14.241Z,19.01
2022-12-03T23:59:17.593Z,18.94
